Hyakuri Airport
RJAH : now visible

Airfield :











YOU CAN JOIN US ON...

 
LOGIN :

Register | Disclaimer

   EN    FR    IT 

 









Legend :    VFR   Marginal VFR   IFR   Intensive IFR   Very Intensive IFR
Visi :
Ceiling :
>= 8 km
>= 3000ft
5 to 8 km
1000 to 3000 ft
1500m to 5 km
500 to 1000 ft
800 to 1500m
200 to 500 ft
< 800m
< 200 ft
Symbols :   Thunderstorms  Fog  Heavy snow  Heavy precipitations  Wind > 20 kt






- Airport Elevation : 105 ft


RJAH - Hyakuri

CURRENT METAR :
  • 171000Z 06003KT 9999 FEW040 BKN160 09/01 Q1025

EXPIRED METARs :
  • 170900Z 10002KT 9999 FEW040 BKN160 11/02 Q1024
  • 170840Z VRB02KT 9999 FEW040 BKN160 11/02 Q1023 RMK 1SC040 5AC160 A3023
  • 170800Z 03004KT 9999 FEW040 SCT160 BKN250 13/01 Q1023

TAF TAF RJAH
Valid from the 17 at 06:00 until the 18 at 12:00 UTC


170510Z 1706/1812 04006KT 9999 FEW030
BECMG 1721/1800 21012KT



MET'MAP, your aeronautical weather chart ! - Copyright ORBIFLY December 2007 - Disclaimer

ORBIFLY MET'MAP TEAM :

Programming & Development : Alexandra Zaïnal
Concept & Development : Baudouin d'Aumeries
Co-Development & Prog : Marc-Olivier Méhu
Technical & hardware support : Manuel Goepfert

Contact : metmap@orbifly.com




SOURCES & CREDITS :

   NOAA       Earth
Advisory